createdAt,value
2022-09-17T00:01:08.037Z,99534.53
2022-09-17T00:03:35.724Z,99535.50
2022-09-17T00:06:10.829Z,99537.28
2022-09-17T00:08:40.235Z,99542.31
2022-09-17T00:11:15.816Z,99553.44
2022-09-17T00:13:43.709Z,99544.22
2022-09-17T00:16:12.145Z,99547.34
2022-09-17T00:18:41.773Z,99546.50
2022-09-17T00:21:17.143Z,99566.38
2022-09-17T00:23:44.317Z,99550.44
2022-09-17T00:26:11.792Z,99554.66
2022-09-17T00:28:38.863Z,99566.03
2022-09-17T00:31:09.267Z,99551.66
2022-09-17T00:33:37.980Z,99566.38
2022-09-17T00:36:05.611Z,99558.94
2022-09-17T00:38:33.006Z,99568.91
2022-09-17T00:41:00.632Z,99563.75
2022-09-17T00:43:42.787Z,99570.34
2022-09-17T00:46:24.879Z,99565.44
2022-09-17T00:48:54.779Z,99572.38
2022-09-17T00:51:38.968Z,99568.91
2022-09-17T00:54:08.969Z,99578.09
2022-09-17T00:56:38.248Z,99581.69
2022-09-17T00:59:05.723Z,99576.22
2022-09-17T01:01:33.345Z,99578.47
2022-09-17T01:04:00.441Z,99583.97
2022-09-17T01:06:56.985Z,99577.41
2022-09-17T01:09:29.811Z,99585.53
2022-09-17T01:12:15.292Z,99590.94
2022-09-17T01:14:42.270Z,99587.94
2022-09-17T01:17:18.364Z,99588.78
2022-09-17T01:19:57.505Z,99596.44
2022-09-17T01:22:27.253Z,99592.97
2022-09-17T01:25:18.651Z,99599.31
2022-09-17T01:28:05.281Z,99594.16
2022-09-17T01:30:44.992Z,99607.34
2022-09-17T01:33:27.239Z,99613.44
2022-09-17T01:36:06.804Z,99606.84
2022-09-17T01:39:07.649Z,99598.81
2022-09-17T01:41:54.778Z,99613.78
2022-09-17T01:45:01.026Z,99613.56
2022-09-17T01:47:44.233Z,99606.13
2022-09-17T01:50:20.087Z,99605.16
2022-09-17T01:52:48.916Z,99608.78
2022-09-17T01:55:17.637Z,99609.13
2022-09-17T01:57:53.396Z,99611.91
2022-09-17T02:00:20.579Z,99622.31
2022-09-17T02:02:59.675Z,99615.25
2022-09-17T02:05:37.718Z,99617.97
2022-09-17T02:08:21.305Z,99617.50
2022-09-17T02:10:52.707Z,99625.31
2022-09-17T02:13:28.469Z,99630.81
2022-09-17T02:15:57.842Z,99630.34
2022-09-17T02:18:27.749Z,99623.28
2022-09-17T02:21:03.729Z,99624.34
2022-09-17T02:23:34.925Z,99629.97
2022-09-17T02:26:07.022Z,99628.88
2022-09-17T02:28:41.861Z,99628.19
2022-09-17T02:31:09.863Z,99627.72
2022-09-17T02:33:38.302Z,99633.19
2022-09-17T02:36:05.518Z,99635.13
2022-09-17T02:38:32.751Z,99614.06
2022-09-17T02:41:25.339Z,99619.53
2022-09-17T02:44:21.284Z,99619.66
2022-09-17T02:47:39.314Z,99615.81
2022-09-17T02:50:14.827Z,99619.91
2022-09-17T02:53:20.220Z,99618.47
2022-09-17T02:56:25.793Z,99622.41
2022-09-17T02:59:27.112Z,99625.88
2022-09-17T03:02:02.982Z,99622.91
2022-09-17T03:04:30.558Z,99619.53
2022-09-17T03:06:59.570Z,99621.25
2022-09-17T03:09:26.704Z,99622.19
2022-09-17T03:11:53.844Z,99622.31
2022-09-17T03:14:20.971Z,99621.94
2022-09-17T03:16:48.144Z,99612.84
2022-09-17T03:19:15.426Z,99619.31
2022-09-17T03:21:42.545Z,99621.72
2022-09-17T03:24:11.605Z,99617.63
2022-09-17T03:26:39.136Z,99612.72
2022-09-17T03:29:06.276Z,99611.66
2022-09-17T03:31:33.425Z,99606.50
2022-09-17T03:34:00.565Z,99622.19
2022-09-17T03:36:28.414Z,99618.94
2022-09-17T03:38:56.571Z,99620.75
2022-09-17T03:41:24.390Z,99620.75
2022-09-17T03:43:51.712Z,99621.72
2022-09-17T03:46:19.482Z,99627.69
2022-09-17T03:48:46.754Z,99624.00
2022-09-17T03:51:13.907Z,99628.16
2022-09-17T03:53:41.150Z,99627.47
2022-09-17T03:56:08.259Z,99627.47
2022-09-17T03:58:35.792Z,99638.00
2022-09-17T04:01:04.158Z,99632.38
2022-09-17T04:03:32.017Z,99633.44
2022-09-17T04:05:59.755Z,99637.16
2022-09-17T04:08:27.156Z,99643.41
2022-09-17T04:10:54.641Z,99640.63
2022-09-17T04:13:21.775Z,99645.16
2022-09-17T04:15:49.034Z,99638.13
2022-09-17T04:18:16.238Z,99644.25
2022-09-17T04:20:43.546Z,99637.41
2022-09-17T04:23:12.014Z,99641.69
2022-09-17T04:25:39.486Z,99638.13
2022-09-17T04:28:06.922Z,99638.72
2022-09-17T04:30:34.042Z,99644.59
2022-09-17T04:33:01.203Z,99642.78
2022-09-17T04:35:28.693Z,99646.84
2022-09-17T04:37:57.561Z,99648.53
2022-09-17T04:40:25.998Z,99643.25
2022-09-17T04:42:59.441Z,99647.69
2022-09-17T04:45:26.727Z,99645.91
2022-09-17T04:47:53.791Z,99651.41
2022-09-17T04:50:21.629Z,99652.84
2022-09-17T04:52:48.835Z,99647.44
2022-09-17T04:55:16.312Z,99646.75
2022-09-17T04:57:51.288Z,99649.59
2022-09-17T05:00:19.636Z,99643.63
2022-09-17T05:02:48.748Z,99641.69
2022-09-17T05:05:16.858Z,99647.09
2022-09-17T05:07:43.983Z,99648.41
2022-09-17T05:10:12.149Z,99649.38
2022-09-17T05:12:39.278Z,99653.94
2022-09-17T05:15:07.828Z,99657.16
2022-09-17T05:17:34.898Z,99661.72
2022-09-17T05:20:02.147Z,99664.50
2022-09-17T05:22:29.791Z,99657.06
2022-09-17T05:24:57.191Z,99661.59
2022-09-17T05:27:24.303Z,99664.97
2022-09-17T05:29:51.396Z,99672.84
2022-09-17T05:32:18.458Z,99673.13
2022-09-17T05:34:45.677Z,99664.00
2022-09-17T05:37:12.747Z,99673.34
2022-09-17T05:39:39.811Z,99670.81
2022-09-17T05:42:07.061Z,99669.13
2022-09-17T05:44:34.174Z,99675.97
2022-09-17T05:47:01.644Z,99672.50
2022-09-17T05:49:28.790Z,99675.16
2022-09-17T05:51:55.908Z,99674.66
2022-09-17T05:54:23.265Z,99676.31
2022-09-17T05:56:53.424Z,99678.94
2022-09-17T05:59:20.494Z,99679.47
2022-09-17T06:01:47.831Z,99687.50
2022-09-17T06:04:17.795Z,99693.59
2022-09-17T06:06:44.902Z,99696.25
2022-09-17T06:09:12.429Z,99693.00
2022-09-17T06:11:39.508Z,99689.53
2022-09-17T06:14:06.623Z,99692.41
2022-09-17T06:16:34.016Z,99694.44
2022-09-17T06:19:01.278Z,99692.41
2022-09-17T06:21:28.372Z,99700.31
2022-09-17T06:23:55.656Z,99703.44
2022-09-17T06:26:22.797Z,99697.31
2022-09-17T06:28:50.024Z,99702.81
2022-09-17T06:31:17.275Z,99709.06
2022-09-17T06:33:44.409Z,99711.81
2022-09-17T06:36:14.564Z,99704.41
2022-09-17T06:38:42.376Z,99703.81
2022-09-17T06:41:09.468Z,99706.31
2022-09-17T06:43:36.588Z,99704.50
2022-09-17T06:46:09.280Z,99710.72
2022-09-17T06:48:37.322Z,99714.22
2022-09-17T06:51:07.268Z,99712.78
2022-09-17T06:53:34.500Z,99710.25
2022-09-17T06:56:06.234Z,99716.50
2022-09-17T06:58:34.947Z,99716.34
2022-09-17T07:01:03.100Z,99714.97
2022-09-17T07:03:31.426Z,99722.50
2022-09-17T07:05:58.592Z,99720.22
2022-09-17T07:08:26.176Z,99726.34
2022-09-17T07:10:57.409Z,99720.47
2022-09-17T07:13:25.088Z,99730.28
2022-09-17T07:15:54.103Z,99724.16
2022-09-17T07:18:21.323Z,99725.84
2022-09-17T07:20:56.078Z,99718.53
2022-09-17T07:23:24.452Z,99720.34
2022-09-17T07:25:53.306Z,99733.41
2022-09-17T07:28:20.980Z,99724.28
2022-09-17T07:30:48.523Z,99727.97
2022-09-17T07:33:24.635Z,99721.78
2022-09-17T07:36:02.755Z,99722.38
2022-09-17T07:38:31.081Z,99721.41
2022-09-17T07:41:03.221Z,99726.53
2022-09-17T07:43:32.263Z,99718.84
2022-09-17T07:46:01.593Z,99713.69
2022-09-17T07:48:29.073Z,99715.84
2022-09-17T07:50:56.647Z,99729.50
2022-09-17T07:53:23.767Z,99730.38
2022-09-17T07:55:54.931Z,99715.38
2022-09-17T07:58:23.234Z,99721.38
2022-09-17T08:00:50.766Z,99731.59
2022-09-17T08:03:17.851Z,99726.78
2022-09-17T08:05:44.999Z,99728.06
2022-09-17T08:08:12.081Z,99725.66
2022-09-17T08:10:39.175Z,99728.06
2022-09-17T08:13:06.243Z,99723.63
2022-09-17T08:15:33.325Z,99728.41
2022-09-17T08:18:00.407Z,99718.72
2022-09-17T08:20:27.572Z,99721.34
2022-09-17T08:23:01.151Z,99723.94
2022-09-17T08:25:28.320Z,99732.94
2022-09-17T08:27:56.511Z,99728.25
2022-09-17T08:30:23.727Z,99723.69
2022-09-17T08:32:50.867Z,99725.22
2022-09-17T08:35:17.963Z,99724.75
2022-09-17T08:37:46.077Z,99728.69
2022-09-17T08:40:16.435Z,99706.28
2022-09-17T08:42:57.275Z,99716.09
2022-09-17T08:45:24.373Z,99720.97
2022-09-17T08:47:52.501Z,99715.06
2022-09-17T08:50:19.629Z,99735.97
2022-09-17T08:53:02.707Z,99717.06
2022-09-17T08:55:58.331Z,99699.53
2022-09-17T08:58:37.285Z,99746.28
2022-09-17T09:01:28.018Z,99726.75
2022-09-17T09:04:16.431Z,99743.34
2022-09-17T09:06:48.045Z,99737.38
2022-09-17T09:09:16.997Z,99732.44
2022-09-17T09:11:44.632Z,99735.53
2022-09-17T09:14:32.383Z,99752.66
2022-09-17T09:17:01.051Z,99750.41
2022-09-17T09:19:32.038Z,99760.47
2022-09-17T09:22:04.824Z,99745.78
2022-09-17T09:24:40.242Z,99751.63
2022-09-17T09:27:18.514Z,99759.69
2022-09-17T09:30:01.996Z,99755.75
2022-09-17T09:32:37.608Z,99754.66
2022-09-17T09:35:36.702Z,99751.19
2022-09-17T09:38:09.630Z,99762.78
2022-09-17T09:40:55.007Z,99756.38
2022-09-17T09:44:02.653Z,99763.03
2022-09-17T09:46:50.929Z,99758.91
2022-09-17T09:49:42.231Z,99770.72
2022-09-17T09:52:19.786Z,99767.94
2022-09-17T09:55:04.157Z,99778.28
2022-09-17T09:57:39.836Z,99778.41
2022-09-17T10:00:26.919Z,99778.97
2022-09-17T10:03:06.938Z,99780.47
2022-09-17T10:05:34.069Z,99769.13
2022-09-17T10:08:11.585Z,99777.25
2022-09-17T10:11:04.084Z,99777.81
2022-09-17T10:13:33.710Z,99773.66
2022-09-17T10:16:19.456Z,99771.84
2022-09-17T10:18:48.367Z,99779.72
2022-09-17T10:21:42.474Z,99773.19
2022-09-17T10:24:23.105Z,99770.31
2022-09-17T10:26:50.584Z,99780.78
2022-09-17T10:29:20.030Z,99787.16
2022-09-17T10:31:55.270Z,99779.66
2022-09-17T10:34:27.498Z,99786.09
2022-09-17T10:36:56.624Z,99789.41
2022-09-17T10:39:26.524Z,99794.25
2022-09-17T10:41:57.780Z,99812.38
2022-09-17T10:44:27.078Z,99811.94
2022-09-17T10:46:54.690Z,99812.50
2022-09-17T10:49:36.261Z,99805.50
2022-09-17T10:52:26.769Z,99809.56
2022-09-17T10:55:24.498Z,99806.97
2022-09-17T10:58:07.271Z,99794.53
2022-09-17T11:00:40.187Z,99794.81
2022-09-17T11:03:40.344Z,99797.53
2022-09-17T11:06:31.338Z,99801.94
2022-09-17T11:09:20.919Z,99824.97
2022-09-17T11:11:56.730Z,99798.38
2022-09-17T11:14:53.697Z,99794.72
2022-09-17T11:17:43.623Z,99791.69
2022-09-17T11:20:26.195Z,99784.63
2022-09-17T11:23:25.435Z,99797.56
2022-09-17T11:26:01.380Z,99794.09
2022-09-17T11:28:40.585Z,99791.59
2022-09-17T11:31:12.182Z,99783.78
2022-09-17T11:34:28.495Z,99796.47
2022-09-17T11:37:17.541Z,99791.56
2022-09-17T11:39:51.505Z,99790.47
2022-09-17T11:42:27.694Z,99794.66
2022-09-17T11:45:03.454Z,99796.88
2022-09-17T11:47:37.750Z,99800.78
2022-09-17T11:50:11.243Z,99798.44
2022-09-17T11:52:59.653Z,99809.63
2022-09-17T11:55:32.859Z,99787.28
2022-09-17T11:58:01.211Z,99786.72
2022-09-17T12:00:29.448Z,99789.50
2022-09-17T12:03:30.899Z,99782.09
2022-09-17T12:06:01.096Z,99789.47
2022-09-17T12:08:37.606Z,99784.56
2022-09-17T12:11:36.451Z,99770.75
2022-09-17T12:14:16.195Z,99785.00
2022-09-17T12:16:45.751Z,99781.47
2022-09-17T12:19:18.556Z,99773.81
2022-09-17T12:21:52.728Z,99790.22
2022-09-17T12:24:29.594Z,99795.66
2022-09-17T12:27:33.959Z,99786.97
2022-09-17T12:30:22.432Z,99773.19
2022-09-17T12:33:12.506Z,99770.69
2022-09-17T12:36:06.044Z,99780.69
2022-09-17T12:38:33.157Z,99760.22
2022-09-17T12:41:07.018Z,99758.44
2022-09-17T12:43:39.960Z,99766.59
2022-09-17T12:46:20.144Z,99760.88
2022-09-17T12:49:19.342Z,99758.28
2022-09-17T12:51:57.604Z,99743.69
2022-09-17T12:54:24.615Z,99745.53
2022-09-17T12:57:24.610Z,99742.63
2022-09-17T13:00:07.729Z,99752.09
2022-09-17T13:03:02.650Z,99757.63
2022-09-17T13:05:50.665Z,99763.81
2022-09-17T13:08:26.615Z,99757.06
2022-09-17T13:11:10.725Z,99753.88
2022-09-17T13:13:47.447Z,99747.19
2022-09-17T13:16:20.767Z,99745.31
2022-09-17T13:19:19.097Z,99743.91
2022-09-17T13:21:55.562Z,99769.00
2022-09-17T13:24:25.232Z,99762.56
2022-09-17T13:26:54.025Z,99764.97
2022-09-17T13:29:48.911Z,99746.53
2022-09-17T13:32:34.591Z,99749.69
2022-09-17T13:35:13.615Z,99760.75
2022-09-17T13:37:52.638Z,99743.28
2022-09-17T13:40:29.953Z,99752.19
2022-09-17T13:42:59.516Z,99751.78
2022-09-17T13:45:26.704Z,99743.22
2022-09-17T13:48:05.591Z,99742.03
2022-09-17T13:50:40.775Z,99738.66
2022-09-17T13:53:14.258Z,99747.34
2022-09-17T13:55:51.222Z,99750.69
2022-09-17T13:58:18.606Z,99742.28
2022-09-17T14:00:54.578Z,99735.69
2022-09-17T14:03:46.478Z,99735.13
2022-09-17T14:06:18.665Z,99737.97
2022-09-17T14:08:46.467Z,99735.13
2022-09-17T14:11:22.652Z,99737.75
2022-09-17T14:13:52.778Z,99748.63
2022-09-17T14:16:25.688Z,99739.47
2022-09-17T14:19:21.964Z,99743.00
2022-09-17T14:22:00.506Z,99743.56
2022-09-17T14:24:46.073Z,99735.28
2022-09-17T14:27:27.755Z,99727.97
2022-09-17T14:29:54.768Z,99744.03
2022-09-17T14:32:46.678Z,99731.38
2022-09-17T14:35:19.961Z,99777.03
2022-09-17T14:37:53.720Z,99757.53
2022-09-17T14:40:21.749Z,99770.03
2022-09-17T14:42:51.887Z,99778.94
2022-09-17T14:45:38.312Z,99766.09
2022-09-17T14:48:27.463Z,99773.06
2022-09-17T14:51:19.148Z,99777.28
2022-09-17T14:53:47.602Z,99781.25
2022-09-17T14:56:19.847Z,99769.09
2022-09-17T14:58:49.209Z,99773.69
2022-09-17T15:01:24.680Z,99767.66
2022-09-17T15:04:13.585Z,99759.91
2022-09-17T15:06:41.601Z,99774.00
2022-09-17T15:09:34.674Z,99758.03
2022-09-17T15:12:02.213Z,99763.31
2022-09-17T15:14:36.311Z,99755.91
2022-09-17T15:17:04.997Z,99758.88
2022-09-17T15:19:35.945Z,99757.06
2022-09-17T15:22:08.433Z,99757.53
2022-09-17T15:24:41.361Z,99753.50
2022-09-17T15:27:29.266Z,99764.25
2022-09-17T15:30:00.656Z,99763.78
2022-09-17T15:32:27.777Z,99768.66
2022-09-17T15:35:13.397Z,99764.88
2022-09-17T15:38:11.473Z,99768.63
2022-09-17T15:40:41.044Z,99769.28
2022-09-17T15:43:18.980Z,99758.72
2022-09-17T15:45:46.273Z,99767.41
2022-09-17T15:48:28.567Z,99766.94
2022-09-17T15:50:57.720Z,99763.00
2022-09-17T15:53:26.750Z,99753.97
2022-09-17T15:56:17.069Z,99764.25
2022-09-17T15:58:47.090Z,99756.81
2022-09-17T16:01:14.138Z,99756.13
2022-09-17T16:03:41.641Z,99764.88
2022-09-17T16:06:25.291Z,99762.28
2022-09-17T16:08:55.899Z,99764.91
2022-09-17T16:11:24.783Z,99759.38
2022-09-17T16:13:53.645Z,99766.78
2022-09-17T16:16:22.662Z,99762.59
2022-09-17T16:18:50.505Z,99762.72
2022-09-17T16:21:18.933Z,99782.31
2022-09-17T16:23:46.400Z,99771.50
2022-09-17T16:26:21.059Z,99765.34
2022-09-17T16:28:49.908Z,99771.84
2022-09-17T16:31:17.139Z,99773.72
2022-09-17T16:33:44.254Z,99772.56
2022-09-17T16:36:11.484Z,99795.63
2022-09-17T16:38:38.905Z,99781.31
2022-09-17T16:41:06.132Z,99796.59
2022-09-17T16:43:34.518Z,99784.44
2022-09-17T16:46:06.067Z,99777.88
2022-09-17T16:48:33.860Z,99787.53
2022-09-17T16:51:03.889Z,99780.97
2022-09-17T16:53:31.041Z,99781.81
2022-09-17T16:55:58.166Z,99788.00
2022-09-17T16:58:25.608Z,99786.97
2022-09-17T17:00:52.775Z,99797.16
2022-09-17T17:03:19.941Z,99801.28
2022-09-17T17:05:47.117Z,99786.13
2022-09-17T17:08:14.647Z,99784.22
2022-09-17T17:10:41.915Z,99775.94
2022-09-17T17:13:09.004Z,99789.50
2022-09-17T17:15:36.067Z,99771.16
2022-09-17T17:18:03.242Z,99765.78
2022-09-17T17:20:31.966Z,99763.28
2022-09-17T17:22:59.048Z,99758.34
2022-09-17T17:25:27.027Z,99762.56
2022-09-17T17:27:54.128Z,99760.38
2022-09-17T17:30:22.032Z,99759.56
2022-09-17T17:32:50.810Z,99769.72
2022-09-17T17:35:18.782Z,99758.34
2022-09-17T17:37:46.182Z,99752.38
2022-09-17T17:40:13.346Z,99757.13
2022-09-17T17:42:43.829Z,99771.50
2022-09-17T17:45:11.218Z,99763.00
2022-09-17T17:47:38.341Z,99767.66
2022-09-17T17:50:05.785Z,99776.41
2022-09-17T17:52:32.937Z,99768.38
2022-09-17T17:55:00.023Z,99773.84
2022-09-17T17:57:27.136Z,99781.19
2022-09-17T17:59:54.226Z,99768.50
2022-09-17T18:02:21.441Z,99772.41
2022-09-17T18:04:48.587Z,99779.25
2022-09-17T18:07:15.628Z,99773.59
2022-09-17T18:09:43.043Z,99780.03
2022-09-17T18:12:10.120Z,99778.72
2022-09-17T18:14:37.258Z,99792.41
2022-09-17T18:17:04.429Z,99792.25
2022-09-17T18:19:31.475Z,99780.97
2022-09-17T18:21:58.575Z,99799.38
2022-09-17T18:24:25.936Z,99788.69
2022-09-17T18:26:52.983Z,99793.59
2022-09-17T18:29:20.059Z,99795.63
2022-09-17T18:31:47.242Z,99800.47
2022-09-17T18:34:15.869Z,99787.53
2022-09-17T18:36:47.579Z,99787.03
2022-09-17T18:39:57.355Z,99788.44
2022-09-17T18:42:05.042Z,99794.63
2022-09-17T18:44:32.140Z,99787.63
2022-09-17T18:46:59.286Z,99784.28
2022-09-17T18:49:26.377Z,99789.97
2022-09-17T18:51:53.555Z,99786.72
2022-09-17T18:54:20.672Z,99786.22
2022-09-17T18:56:47.752Z,99787.78
2022-09-17T18:59:14.824Z,99791.38
2022-09-17T19:01:42.050Z,99784.19
2022-09-17T19:04:10.014Z,99786.63
2022-09-17T19:06:37.125Z,99784.03
2022-09-17T19:09:04.966Z,99793.94
2022-09-17T19:11:32.144Z,99800.16
2022-09-17T19:13:59.396Z,99794.06
2022-09-17T19:16:26.527Z,99791.41
2022-09-17T19:18:53.765Z,99795.94
2022-09-17T19:21:21.835Z,99793.75
2022-09-17T19:23:50.810Z,99798.19
2022-09-17T19:26:22.784Z,99790.66
2022-09-17T19:28:54.311Z,99788.28
2022-09-17T19:31:21.753Z,99785.13
2022-09-17T19:33:48.948Z,99789.53
2022-09-17T19:36:17.635Z,99784.06
2022-09-17T19:38:45.839Z,99783.03
2022-09-17T19:41:15.410Z,99790.28
2022-09-17T19:43:42.675Z,99785.03
2022-09-17T19:46:15.251Z,99788.50
2022-09-17T19:48:50.408Z,99792.91
2022-09-17T19:51:17.922Z,99788.16
2022-09-17T19:53:45.578Z,99787.00
2022-09-17T19:56:18.068Z,99786.78
2022-09-17T19:58:45.634Z,99785.91
2022-09-17T20:01:13.132Z,99783.28
2022-09-17T20:03:41.681Z,99780.66
2022-09-17T20:06:10.990Z,99782.34
2022-09-17T20:08:46.802Z,99778.88
2022-09-17T20:11:14.930Z,99774.84
2022-09-17T20:13:42.241Z,99777.59
2022-09-17T20:16:15.018Z,99779.06
2022-09-17T20:18:43.810Z,99774.84
2022-09-17T20:21:25.417Z,99778.97
2022-09-17T20:23:52.501Z,99777.94
2022-09-17T20:26:19.692Z,99774.38
2022-09-17T20:28:48.368Z,99770.19
2022-09-17T20:31:18.698Z,99773.38
2022-09-17T20:33:46.412Z,99767.81
2022-09-17T20:36:15.769Z,99776.53
2022-09-17T20:41:32.104Z,99778.00
2022-09-17T20:43:59.198Z,99773.69
2022-09-17T20:46:29.186Z,99772.75
2022-09-17T20:48:57.540Z,99774.00
2022-09-17T20:51:27.180Z,99766.19
2022-09-17T20:53:54.283Z,99765.78
2022-09-17T20:56:26.629Z,99774.06
2022-09-17T20:59:17.697Z,99779.25
2022-09-17T21:01:46.587Z,99774.72
2022-09-17T21:04:16.419Z,99776.69
2022-09-17T21:06:44.050Z,99773.53
2022-09-17T21:09:15.503Z,99774.81
2022-09-17T21:11:47.000Z,99771.94
2022-09-17T21:14:15.761Z,99769.31
2022-09-17T21:16:43.214Z,99775.97
2022-09-17T21:19:11.863Z,99768.91
2022-09-17T21:21:38.911Z,99775.53
2022-09-17T21:24:07.073Z,99771.88
2022-09-17T21:26:34.518Z,99778.59
2022-09-17T21:29:02.013Z,99773.31
2022-09-17T21:31:33.660Z,99770.78
2022-09-17T21:34:04.891Z,99769.13
2022-09-17T21:36:34.449Z,99760.19
2022-09-17T21:39:15.854Z,99773.22
2022-09-17T21:41:43.717Z,99774.16
2022-09-17T21:44:11.658Z,99769.88
2022-09-17T21:46:39.205Z,99771.41
2022-09-17T21:49:06.439Z,99777.31
2022-09-17T21:51:38.527Z,99779.81
2022-09-17T21:54:10.709Z,99787.72
2022-09-17T21:56:38.175Z,99781.91
2022-09-17T21:59:07.421Z,99786.22
2022-09-17T22:01:39.676Z,99781.69
2022-09-17T22:04:09.020Z,99776.94
2022-09-17T22:06:36.816Z,99786.13
2022-09-17T22:09:05.429Z,99780.09
2022-09-17T22:11:34.400Z,99781.97
2022-09-17T22:14:12.994Z,99786.78
2022-09-17T22:16:42.672Z,99786.03
2022-09-17T22:19:12.068Z,99790.38
2022-09-17T22:21:41.407Z,99781.84
2022-09-17T22:24:09.966Z,99780.41
2022-09-17T22:26:39.735Z,99777.59
2022-09-17T22:29:09.436Z,99781.19
2022-09-17T22:31:36.780Z,99775.19
2022-09-17T22:34:08.046Z,99771.38
2022-09-17T22:36:35.352Z,99771.59
2022-09-17T22:39:02.809Z,99775.19
2022-09-17T22:41:31.365Z,99764.66
2022-09-17T22:44:03.519Z,99773.03
2022-09-17T22:46:32.957Z,99777.75
2022-09-17T22:49:00.966Z,99776.44
2022-09-17T22:51:29.292Z,99773.00
2022-09-17T22:53:57.053Z,99770.50
2022-09-17T22:56:25.043Z,99775.25
2022-09-17T22:58:52.111Z,99770.69
2022-09-17T23:01:21.524Z,99771.75
2022-09-17T23:03:50.674Z,99766.28
2022-09-17T23:06:20.376Z,99763.84
2022-09-17T23:08:48.065Z,99766.41
2022-09-17T23:11:20.375Z,99754.69
2022-09-17T23:13:48.172Z,99762.59
2022-09-17T23:16:15.522Z,99756.38
2022-09-17T23:18:43.053Z,99765.84
2022-09-17T23:21:18.439Z,99759.13
2022-09-17T23:23:47.976Z,99757.53
2022-09-17T23:26:22.877Z,99758.88
2022-09-17T23:28:50.055Z,99754.09
2022-09-17T23:31:19.353Z,99759.44
2022-09-17T23:33:47.397Z,99760.63
2022-09-17T23:36:17.599Z,99762.63
2022-09-17T23:38:45.374Z,99754.97
2022-09-17T23:41:17.075Z,99764.28
2022-09-17T23:43:46.499Z,99756.53
2022-09-17T23:46:14.062Z,99756.66
2022-09-17T23:48:41.388Z,99770.03
2022-09-17T23:51:08.882Z,99760.13
2022-09-17T23:53:36.396Z,99762.34
2022-09-17T23:56:05.137Z,99763.56
2022-09-17T23:58:32.985Z,99761.88
